Time;durP1;ratioP1;P1;durP2;ratioP2;P2;SDS_P1;SDS_P2;PMS_P1;PMS_P2;Temp;Humidity;BMP_temperature;BMP_pressure;BME280_temperature;BME280_humidity;BME280_pressure;Samples;Min_cycle;Max_cycle;Signal;HPM_P1;HPM_P2
2023/07/24 00:01:32;;;;;;;1.13;1.00;;;;;;;20.23;80.90;99746.69;5021271;28;20208;-82
2023/07/24 00:03:59;;;;;;;1.27;1.00;;;;;;;20.21;81.09;99735.22;5029386;28;20245;-82
2023/07/24 00:06:25;;;;;;;1.07;0.93;;;;;;;20.21;81.00;99735.22;5024254;28;20267;-82
2023/07/24 00:08:51;;;;;;;1.20;1.00;;;;;;;20.20;81.01;99729.97;5028055;28;20224;-82
2023/07/24 00:11:18;;;;;;;4.03;0.97;;;;;;;20.20;81.03;99738.09;5030049;28;20201;-82
2023/07/24 00:13:46;;;;;;;1.07;0.90;;;;;;;20.23;80.98;99735.03;5030643;28;20233;-83
2023/07/24 00:16:13;;;;;;;1.23;1.13;;;;;;;20.17;80.79;99741.16;5030015;28;22106;-81
2023/07/24 00:18:40;;;;;;;1.20;1.10;;;;;;;20.15;80.82;99743.19;5025879;28;20208;-82
2023/07/24 00:21:07;;;;;;;1.07;1.00;;;;;;;20.13;80.93;99751.47;5029633;28;20235;-82
2023/07/24 00:23:33;;;;;;;2.43;1.23;;;;;;;20.11;80.89;99742.72;5026495;28;20710;-83
2023/07/24 00:26:00;;;;;;;3.50;1.30;;;;;;;20.13;80.81;99737.13;5025811;28;20631;-82
2023/07/24 00:28:26;;;;;;;1.10;0.90;;;;;;;20.12;80.79;99744.38;5032213;28;20666;-82
2023/07/24 00:30:55;;;;;;;1.20;1.10;;;;;;;20.12;80.88;99733.56;5028453;28;20586;-84
2023/07/24 00:33:22;;;;;;;1.23;1.13;;;;;;;20.09;80.95;99729.38;5030394;28;20688;-83
2023/07/24 00:35:49;;;;;;;1.20;1.10;;;;;;;20.10;80.81;99728.34;5019533;28;20209;-83
2023/07/24 00:38:15;;;;;;;1.83;1.10;;;;;;;20.11;80.91;99734.59;5028841;28;20229;-83
2023/07/24 00:40:42;;;;;;;1.43;1.27;;;;;;;20.11;80.80;99730.03;5035284;28;20252;-84
2023/07/24 00:43:08;;;;;;;1.10;1.00;;;;;;;20.13;80.66;99731.72;5026752;28;20230;-83
2023/07/24 00:45:34;;;;;;;1.93;1.03;;;;;;;20.10;80.82;99739.16;5035644;28;20263;-84
2023/07/24 00:48:02;;;;;;;1.70;1.23;;;;;;;20.11;80.88;99734.59;5028707;28;20215;-83
2023/07/24 00:50:29;;;;;;;1.33;1.23;;;;;;;20.09;80.67;99734.78;5033772;28;20634;-83
2023/07/24 00:52:56;;;;;;;0.97;0.97;;;;;;;20.09;80.90;99739.34;5027127;28;20237;-84
2023/07/24 00:55:23;;;;;;;1.10;1.10;;;;;;;20.10;80.83;99741.88;5024063;28;20227;-83
2023/07/24 00:57:50;;;;;;;1.70;1.20;;;;;;;20.11;80.86;99748.13;5030155;28;20656;-82
2023/07/24 01:00:17;;;;;;;1.90;1.10;;;;;;;20.10;80.72;99743.72;5033228;28;20209;-83
2023/07/24 01:02:44;;;;;;;1.30;1.20;;;;;;;20.08;80.78;99743.91;5023413;28;21151;-82
2023/07/24 01:05:14;;;;;;;1.30;1.00;;;;;;;20.08;80.67;99746.59;5030261;28;20235;-81
2023/07/24 01:07:40;;;;;;;1.10;1.00;;;;;;;20.07;80.69;99739.50;5030029;28;20214;-83
2023/07/24 01:10:07;;;;;;;1.50;1.40;;;;;;;20.06;80.96;99734.31;5026960;28;20210;-82
2023/07/24 01:12:37;;;;;;;1.57;1.30;;;;;;;20.04;80.81;99730.94;5028451;28;20201;-82
2023/07/24 01:15:11;;;;;;;2.80;1.60;;;;;;;20.02;80.97;99728.44;5038268;28;20217;-82
2023/07/24 01:17:42;;;;;;;1.40;1.30;;;;;;;20.01;80.72;99724.03;5027846;28;20209;-83
2023/07/24 01:20:16;;;;;;;1.30;1.20;;;;;;;19.99;80.84;99720.66;5029448;28;20575;-82
2023/07/24 01:22:55;;;;;;;1.83;1.30;;;;;;;20.00;80.98;99721.50;5034042;28;20667;-82
2023/07/24 01:25:32;;;;;;;1.50;1.40;;;;;;;19.99;80.76;99722.53;5032463;28;20233;-82
2023/07/24 01:28:00;;;;;;;1.80;1.60;;;;;;;19.97;80.70;99727.28;5028423;28;20232;-83
2023/07/24 01:30:26;;;;;;;1.37;1.27;;;;;;;19.98;80.81;99721.69;5030707;28;20199;-82
2023/07/24 01:32:53;;;;;;;1.77;1.40;;;;;;;19.97;80.83;99722.72;5027301;28;20586;-83
2023/07/24 01:35:19;;;;;;;1.23;1.13;;;;;;;19.96;80.94;99728.28;5030803;28;20212;-83
2023/07/24 01:37:47;;;;;;;2.13;1.50;;;;;;;19.96;81.16;99728.28;5031749;28;20576;-82
2023/07/24 01:40:14;;;;;;;1.70;1.60;;;;;;;19.97;81.03;99711.91;5031104;28;20209;-82
2023/07/24 01:42:42;;;;;;;1.57;1.43;;;;;;;19.93;80.99;99713.28;5029508;28;20206;-83
2023/07/24 01:45:11;;;;;;;2.10;1.43;;;;;;;19.94;81.18;99714.97;5034529;28;20234;-83
2023/07/24 01:47:37;;;;;;;2.20;1.73;;;;;;;19.93;81.35;99717.84;5032775;28;20227;-84
2023/07/24 01:50:05;;;;;;;1.90;1.60;;;;;;;19.92;81.38;99714.28;5032021;28;20210;-83
2023/07/24 01:52:31;;;;;;;2.03;1.40;;;;;;;19.92;81.34;99708.88;5033415;28;20240;-83
2023/07/24 01:54:57;;;;;;;1.70;1.50;;;;;;;19.91;81.39;99704.50;5025895;28;20216;-83
2023/07/24 01:57:24;;;;;;;2.50;1.60;;;;;;;19.91;81.42;99712.59;5030013;28;20211;-83
2023/07/24 01:59:50;;;;;;;1.40;1.30;;;;;;;19.92;81.46;99717.00;5029574;28;20213;-82
2023/07/24 02:02:18;;;;;;;1.90;1.80;;;;;;;19.92;81.30;99711.59;5031529;28;20206;-83
2023/07/24 02:04:47;;;;;;;1.60;1.50;;;;;;;19.92;81.63;99711.59;5031926;28;20871;-82
2023/07/24 02:07:13;;;;;;;1.57;1.47;;;;;;;19.93;81.38;99709.72;5029230;28;20221;-82
2023/07/24 02:09:40;;;;;;;1.93;1.73;;;;;;;19.94;81.47;99714.13;5029728;28;20213;-83
2023/07/24 02:12:07;;;;;;;1.47;1.37;;;;;;;19.93;81.36;99705.16;5026591;28;20206;-82
2023/07/24 02:14:34;;;;;;;2.37;1.43;;;;;;;19.92;81.50;99706.19;5028786;28;20233;-83
2023/07/24 02:17:00;;;;;;;1.67;1.33;;;;;;;19.92;81.34;99703.47;5024350;28;20225;-83
2023/07/24 02:19:28;;;;;;;1.70;1.60;;;;;;;19.93;81.20;99704.31;5030490;28;20204;-83
2023/07/24 02:21:54;;;;;;;1.50;1.40;;;;;;;19.93;81.21;99707.03;5030769;28;20220;-83
2023/07/24 02:24:21;;;;;;;1.67;1.57;;;;;;;19.92;81.25;99703.47;5029808;28;20228;-82
2023/07/24 02:26:47;;;;;;;1.40;1.30;;;;;;;19.90;81.25;99693.88;5030115;28;20229;-81
2023/07/24 02:29:14;;;;;;;2.47;1.60;;;;;;;19.88;81.44;99704.88;5026064;28;20201;-82
2023/07/24 02:31:40;;;;;;;1.40;1.30;;;;;;;19.88;81.38;99695.94;5030528;28;20204;-82
2023/07/24 02:34:07;;;;;;;1.60;1.50;;;;;;;19.87;81.29;99697.81;5024032;28;20230;-82
2023/07/24 02:36:34;;;;;;;1.53;1.43;;;;;;;19.85;81.71;99696.28;5023573;28;20325;-82
2023/07/24 02:39:01;;;;;;;1.33;1.15;;;;;;;19.82;81.89;99700.19;5030412;28;20214;-81
2023/07/24 02:41:27;;;;;;;1.20;1.10;;;;;;;19.84;81.84;99705.41;5030766;28;20662;-82
2023/07/24 02:43:54;;;;;;;2.10;1.20;;;;;;;19.84;81.82;99700.00;5032941;28;20233;-82
2023/07/24 02:46:20;;;;;;;1.43;1.33;;;;;;;19.79;81.92;99697.00;5031804;28;20231;-83
2023/07/24 02:48:47;;;;;;;1.47;1.37;;;;;;;19.77;82.01;99691.78;5026100;28;20217;-82
2023/07/24 02:51:13;;;;;;;1.20;1.10;;;;;;;19.74;81.95;99692.13;5031388;28;20214;-82
2023/07/24 02:53:41;;;;;;;2.37;1.50;;;;;;;19.72;82.08;99703.13;5027539;28;20255;-82
2023/07/24 02:56:08;;;;;;;2.17;1.30;;;;;;;19.67;82.17;99692.03;5029447;28;20217;-82
2023/07/24 02:58:34;;;;;;;1.50;1.40;;;;;;;19.65;82.15;99693.22;5031447;28;20688;-82
2023/07/24 03:01:06;;;;;;;1.57;1.37;;;;;;;19.62;82.23;99691.72;5029909;28;20203;-82
2023/07/24 03:03:32;;;;;;;1.83;1.40;;;;;;;19.59;82.68;99699.31;5030747;28;20233;-82
2023/07/24 03:05:59;;;;;;;1.30;1.20;;;;;;;19.56;82.43;99687.00;5033948;28;20233;-82
2023/07/24 03:08:25;;;;;;;1.67;1.30;;;;;;;19.52;82.71;99688.41;5031136;28;20215;-82
2023/07/24 03:10:53;;;;;;;1.60;1.27;;;;;;;19.50;82.95;99692.31;5029833;28;20203;-82
2023/07/24 03:13:20;;;;;;;1.83;1.20;;;;;;;19.47;83.02;99695.31;5031433;28;20921;-82
2023/07/24 03:15:53;;;;;;;1.97;1.23;;;;;;;19.44;83.02;99680.31;5030107;28;20732;-82
2023/07/24 03:18:20;;;;;;;1.73;1.30;;;;;;;19.41;83.00;99678.78;5034273;28;20257;-82
2023/07/24 03:20:46;;;;;;;1.53;1.40;;;;;;;19.37;83.22;99682.88;5029526;28;20714;-82
2023/07/24 03:23:13;;;;;;;1.40;1.30;;;;;;;19.34;83.32;99682.41;5029992;28;20232;-82
2023/07/24 03:25:39;;;;;;;1.40;1.30;;;;;;;19.32;83.41;99687.13;5023332;28;20266;-82
2023/07/24 03:28:07;;;;;;;1.87;1.30;;;;;;;19.26;83.87;99683.28;5028836;28;20209;-82
2023/07/24 03:30:34;;;;;;;1.33;1.23;;;;;;;19.20;83.70;99692.06;5029852;28;20206;-82
2023/07/24 03:33:01;;;;;;;1.37;1.27;;;;;;;19.18;84.15;99679.75;5024662;28;20727;-81
2023/07/24 03:35:28;;;;;;;1.90;1.57;;;;;;;19.15;84.34;99685.53;5025394;28;20221;-82
2023/07/24 03:37:54;;;;;;;1.97;1.43;;;;;;;19.12;84.70;99675.91;5022677;28;20215;-82
2023/07/24 03:40:20;;;;;;;2.37;1.67;;;;;;;19.08;84.80;99674.59;5027442;28;20215;-82
2023/07/24 03:42:47;;;;;;;2.13;1.50;;;;;;;19.04;85.09;99679.47;5026370;28;20214;-82
2023/07/24 03:45:15;;;;;;;1.40;1.30;;;;;;;19.01;85.40;99671.72;5026094;28;20207;-82
2023/07/24 03:47:41;;;;;;;3.57;1.90;;;;;;;19.00;85.50;99674.59;5023487;28;20236;-82
2023/07/24 03:50:09;;;;;;;1.40;1.20;;;;;;;18.99;85.57;99664.81;5034977;28;20210;-81
2023/07/24 03:52:35;;;;;;;1.60;1.50;;;;;;;18.95;85.79;99658.97;5026015;28;20209;-82
2023/07/24 03:55:02;;;;;;;3.67;1.50;;;;;;;18.94;85.94;99659.97;5016043;28;20531;-82
2023/07/24 03:57:28;;;;;;;1.50;1.40;;;;;;;18.93;86.13;99657.44;5030919;28;20201;-82
2023/07/24 03:59:55;;;;;;;1.57;1.47;;;;;;;18.91;86.33;99651.38;5027183;28;20223;-82
2023/07/24 04:02:24;;;;;;;1.83;1.50;;;;;;;18.91;86.54;99660.31;5028379;28;20293;-83
2023/07/24 04:04:51;;;;;;;2.33;1.50;;;;;;;18.90;86.55;99663.19;5027463;28;20234;-81
2023/07/24 04:07:17;;;;;;;2.13;1.33;;;;;;;18.88;86.87;99663.34;5027949;28;20278;-81
2023/07/24 04:09:44;;;;;;;2.63;1.60;;;;;;;18.87;86.69;99658.97;5022878;28;20229;-84
2023/07/24 04:12:10;;;;;;;2.37;1.70;;;;;;;18.86;86.96;99649.19;5028783;28;20205;-84
2023/07/24 04:14:36;;;;;;;2.50;1.50;;;;;;;18.85;86.93;99650.22;5029589;28;20239;-83
2023/07/24 04:17:03;;;;;;;1.80;1.60;;;;;;;18.85;86.96;99643.97;5034717;28;20203;-83
2023/07/24 04:19:31;;;;;;;1.50;1.40;;;;;;;18.84;87.17;99645.84;5035183;28;20216;-84
2023/07/24 04:21:57;;;;;;;1.70;1.60;;;;;;;18.83;87.34;99643.31;5025158;28;20209;-81
2023/07/24 04:24:24;;;;;;;1.80;1.40;;;;;;;18.82;87.28;99644.31;5033601;28;20236;-82
2023/07/24 04:26:50;;;;;;;1.70;1.60;;;;;;;18.81;87.54;99643.47;5026300;28;20240;-82
2023/07/24 04:29:17;;;;;;;1.50;1.40;;;;;;;18.81;87.27;99645.38;5034139;28;20209;-82
2023/07/24 04:31:43;;;;;;;1.73;1.10;;;;;;;18.78;87.56;99640.31;5034025;28;20212;-81
2023/07/24 04:34:10;;;;;;;1.50;1.40;;;;;;;18.75;87.83;99641.50;5031594;28;20232;-82
2023/07/24 04:36:37;;;;;;;1.57;1.40;;;;;;;18.73;88.20;99633.56;5029111;28;20551;-81
2023/07/24 04:39:04;;;;;;;2.50;1.53;;;;;;;18.70;88.51;99633.06;5038836;28;20578;-81
2023/07/24 04:41:30;;;;;;;1.60;1.30;;;;;;;18.69;88.77;99632.22;5034233;28;20207;-82
2023/07/24 04:43:57;;;;;;;1.60;1.20;;;;;;;18.67;89.02;99622.63;5034534;28;20225;-82
2023/07/24 04:46:23;;;;;;;1.90;1.37;;;;;;;18.67;89.38;99609.16;5037111;28;20238;-82
2023/07/24 04:48:50;;;;;;;2.60;1.50;;;;;;;18.66;89.55;99618.25;5028562;28;20203;-81
2023/07/24 04:51:18;;;;;;;2.70;1.43;;;;;;;18.67;89.84;99618.06;5033082;28;20205;-82
2023/07/24 04:53:46;;;;;;;1.83;1.50;;;;;;;18.69;90.24;99607.13;5034046;28;20716;-82
2023/07/24 04:56:12;;;;;;;2.77;1.43;;;;;;;18.69;90.54;99594.47;5030584;28;20197;-82
2023/07/24 04:58:39;;;;;;;1.53;1.23;;;;;;;18.72;90.73;99588.72;5032030;28;20209;-82
2023/07/24 05:01:05;;;;;;;1.30;1.20;;;;;;;18.74;90.83;99580.47;5026126;28;20205;-82
2023/07/24 05:03:32;;;;;;;2.07;1.20;;;;;;;18.77;90.85;99573.88;5032727;28;21198;-82
2023/07/24 05:05:59;;;;;;;1.50;1.33;;;;;;;18.81;91.09;99573.34;5031569;28;20215;-82
2023/07/24 05:08:25;;;;;;;1.93;1.30;;;;;;;18.89;90.80;99572.47;5024413;28;20224;-83
2023/07/24 05:10:56;;;;;;;1.83;1.20;;;;;;;18.93;90.87;99557.63;5029221;28;20205;-82
2023/07/24 05:13:22;;;;;;;1.83;1.60;;;;;;;18.99;90.63;99563.13;5029597;28;20240;-82
2023/07/24 05:15:49;;;;;;;1.77;1.13;;;;;;;19.06;90.41;99556.00;5026914;28;20210;-82
2023/07/24 05:18:15;;;;;;;4.93;1.37;;;;;;;19.13;89.93;99545.34;5026133;28;20236;-83
2023/07/24 05:20:45;;;;;;;3.23;1.30;;;;;;;19.21;89.45;99549.84;5028890;28;20208;-83
2023/07/24 05:23:11;;;;;;;2.37;1.50;;;;;;;19.24;88.79;99558.44;5029738;28;20232;-82
2023/07/24 05:25:38;;;;;;;1.90;1.50;;;;;;;19.27;88.75;99560.78;5032648;28;20263;-82
2023/07/24 05:28:06;;;;;;;1.43;1.20;;;;;;;19.33;88.22;99560.06;5030903;28;20239;-81
2023/07/24 05:30:33;;;;;;;3.80;1.43;;;;;;;19.37;88.09;99569.47;5034003;28;20227;-82
2023/07/24 05:32:59;;;;;;;1.40;1.30;;;;;;;19.45;87.79;99578.53;5027707;28;20229;-81
2023/07/24 05:35:26;;;;;;;1.97;1.20;;;;;;;19.49;87.87;99582.56;5031755;28;20200;-82
2023/07/24 05:37:52;;;;;;;2.17;1.60;;;;;;;19.53;87.58;99578.50;5032659;28;20206;-82
2023/07/24 05:40:19;;;;;;;2.67;1.50;;;;;;;19.57;87.07;99579.81;5030798;28;20212;-82
2023/07/24 05:42:47;;;;;;;2.77;1.50;;;;;;;19.58;87.00;99587.75;5031375;28;20220;-82
2023/07/24 05:45:15;;;;;;;2.97;1.57;;;;;;;19.59;86.81;99581.31;5029572;28;20222;-82
2023/07/24 05:47:42;;;;;;;3.60;1.80;;;;;;;19.60;86.51;99563.25;5030612;28;20224;-82
2023/07/24 05:50:09;;;;;;;3.60;1.70;;;;;;;19.59;86.54;99564.28;5028608;28;20199;-82
2023/07/24 05:52:35;;;;;;;4.30;1.60;;;;;;;19.58;86.35;99559.88;5028361;28;20280;-81
2023/07/24 05:55:02;;;;;;;5.33;1.63;;;;;;;19.58;86.49;99579.63;5028482;28;20216;-82
2023/07/24 05:57:29;;;;;;;2.10;1.93;;;;;;;19.60;87.36;99572.19;5031454;28;20270;-84
2023/07/24 05:59:56;;;;;;;2.70;1.70;;;;;;;19.62;87.97;99572.84;5030456;28;20197;-84
2023/07/24 06:02:23;;;;;;;4.03;1.80;;;;;;;19.65;88.51;99568.97;5034976;28;20208;-83
2023/07/24 06:04:50;;;;;;;2.03;1.80;;;;;;;19.68;89.04;99557.78;5027850;28;20585;-83
2023/07/24 06:07:16;;;;;;;3.77;1.93;;;;;;;19.69;89.46;99556.78;5032211;28;20233;-83
2023/07/24 06:09:43;;;;;;;1.90;1.70;;;;;;;19.71;89.33;99552.84;5029367;28;20208;-82
2023/07/24 06:12:09;;;;;;;2.33;1.60;;;;;;;19.73;89.61;99542.69;5031554;28;20234;-82
2023/07/24 06:14:36;;;;;;;3.07;1.90;;;;;;;19.79;89.86;99543.00;5032304;28;20715;-83
2023/07/24 06:17:02;;;;;;;3.37;1.70;;;;;;;19.87;90.79;99557.28;5032038;28;20861;-81
2023/07/24 06:19:30;;;;;;;2.30;2.10;;;;;;;19.99;91.09;99550.41;5028811;28;20203;-82
2023/07/24 06:21:56;;;;;;;2.20;2.00;;;;;;;20.07;91.30;99535.94;5032538;28;20211;-81
2023/07/24 06:24:23;;;;;;;2.87;2.00;;;;;;;20.16;90.67;99531.31;5033517;28;20233;-82
2023/07/24 06:26:50;;;;;;;2.57;2.30;;;;;;;20.25;89.70;99532.88;5032691;28;20284;-81
2023/07/24 06:29:16;;;;;;;1.95;1.58;;;;;;;20.34;87.68;99520.97;5026179;28;20203;-81
2023/07/24 06:31:43;;;;;;;3.43;1.90;;;;;;;20.42;87.29;99513.59;5025426;28;20205;-81
2023/07/24 06:34:09;;;;;;;5.78;1.73;;;;;;;20.51;85.61;99516.22;5030557;28;20225;-81
2023/07/24 06:36:37;;;;;;;2.50;1.90;;;;;;;20.58;83.88;99517.16;5035127;28;20197;-80
2023/07/24 06:39:04;;;;;;;2.47;1.93;;;;;;;20.65;83.67;99516.19;5030547;28;20212;-82
2023/07/24 06:41:30;;;;;;;2.80;1.50;;;;;;;20.68;82.34;99513.13;5025710;28;20201;-82
2023/07/24 06:43:57;;;;;;;1.85;1.50;;;;;;;20.72;81.04;99509.00;5029292;28;20224;-82
2023/07/24 06:46:23;;;;;;;3.15;1.60;;;;;;;20.75;80.75;99507.78;5035595;28;20208;-83
2023/07/24 06:48:49;;;;;;;2.55;1.75;;;;;;;20.76;80.53;99495.94;5035448;28;20205;-83
2023/07/24 06:51:16;;;;;;;2.73;2.03;;;;;;;20.80;79.87;99503.47;5027569;28;20202;-82
2023/07/24 06:53:44;;;;;;;2.57;1.90;;;;;;;20.87;79.43;99497.31;5026687;28;20235;-82
2023/07/24 06:56:10;;;;;;;2.88;2.03;;;;;;;20.88;79.14;99505.22;5028381;28;20292;-82
2023/07/24 06:58:37;;;;;;;2.55;2.03;;;;;;;20.93;77.98;99510.09;5031181;28;20285;-81
2023/07/24 07:01:06;;;;;;;4.07;1.80;;;;;;;20.97;77.82;99505.94;5032098;28;20692;-81
2023/07/24 07:03:34;;;;;;;5.20;1.95;;;;;;;21.03;77.66;99500.59;5031216;28;20225;-82
2023/07/24 07:06:02;;;;;;;3.35;1.65;;;;;;;21.09;77.16;99516.09;5030550;28;20299;-82
2023/07/24 07:08:29;;;;;;;2.42;2.05;;;;;;;21.19;76.88;99504.09;5030651;28;20221;-81
2023/07/24 07:10:57;;;;;;;3.53;2.05;;;;;;;21.31;76.35;99514.28;5026924;28;20228;-82
2023/07/24 07:13:23;;;;;;;1.60;1.48;;;;;;;21.38;75.35;99501.59;5031760;28;20222;-82
2023/07/24 07:15:50;;;;;;;4.45;2.30;;;;;;;21.44;74.25;99503.56;5033479;28;20206;-81
2023/07/24 07:18:17;;;;;;;2.10;1.70;;;;;;;21.46;73.93;99503.34;5033308;28;20198;-82
2023/07/24 07:20:46;;;;;;;2.97;1.75;;;;;;;21.53;73.57;99493.41;5027317;28;20647;-82
2023/07/24 07:23:12;;;;;;;2.20;2.00;;;;;;;21.60;73.40;99498.88;5029567;28;20253;-80
2023/07/24 07:25:39;;;;;;;2.75;1.90;;;;;;;21.65;73.06;99501.84;5033779;28;20217;-81
2023/07/24 07:28:06;;;;;;;1.90;1.65;;;;;;;21.69;72.49;99498.53;5030618;28;20304;-81
2023/07/24 07:30:33;;;;;;;2.78;2.20;;;;;;;21.71;71.92;99501.88;5028955;28;20213;-82
2023/07/24 07:32:59;;;;;;;3.05;1.92;;;;;;;21.78;72.50;99494.66;5031693;28;20750;-84
2023/07/24 07:35:26;;;;;;;3.92;1.95;;;;;;;21.94;72.10;99492.66;5030401;28;20206;-83
2023/07/24 07:37:53;;;;;;;2.13;1.90;;;;;;;22.13;71.74;99484.69;5032724;28;20206;-83
2023/07/24 07:40:19;;;;;;;3.15;1.98;;;;;;;22.36;69.88;99472.72;5034382;28;20651;-81
2023/07/24 07:42:46;;;;;;;2.38;1.60;;;;;;;22.51;68.19;99476.13;5028783;28;20786;-81
2023/07/24 07:45:14;;;;;;;3.35;1.83;;;;;;;22.58;67.33;99457.13;5025961;28;20589;-82
2023/07/24 07:47:40;;;;;;;3.97;2.10;;;;;;;22.62;67.72;99459.25;5028210;28;20237;-82
2023/07/24 07:50:07;;;;;;;3.20;1.77;;;;;;;22.69;67.12;99472.84;5030847;28;20209;-83
2023/07/24 07:52:33;;;;;;;2.28;1.85;;;;;;;22.73;66.48;99465.97;5032610;28;20198;-84
2023/07/24 07:55:00;;;;;;;4.30;2.10;;;;;;;22.77;65.92;99470.81;5032283;28;20226;-80
2023/07/24 07:57:26;;;;;;;3.63;2.33;;;;;;;22.84;64.82;99466.25;5030648;28;20202;-83
2023/07/24 07:59:53;;;;;;;2.35;1.80;;;;;;;22.92;66.16;99456.25;5034216;28;20221;-83
2023/07/24 08:02:21;;;;;;;2.63;1.92;;;;;;;23.09;65.12;99452.94;5026410;28;20231;-82
2023/07/24 08:04:47;;;;;;;2.60;2.13;;;;;;;23.22;65.41;99467.56;5031024;28;20240;-82
2023/07/24 08:07:13;;;;;;;2.47;1.85;;;;;;;23.29;65.11;99468.44;5027082;28;20234;-83
2023/07/24 08:09:40;;;;;;;3.05;2.30;;;;;;;23.34;64.59;99474.03;5026122;28;20206;-82
2023/07/24 08:12:08;;;;;;;3.58;2.30;;;;;;;23.31;65.24;99466.31;5031561;28;20198;-82
2023/07/24 08:14:34;;;;;;;4.38;2.47;;;;;;;23.25;64.76;99464.44;5028146;28;20238;-81
2023/07/24 08:17:01;;;;;;;3.45;1.85;;;;;;;23.20;64.38;99470.50;5031889;28;21467;-83
2023/07/24 08:19:30;;;;;;;3.40;2.22;;;;;;;23.06;64.48;99482.38;5037624;28;20231;-81
2023/07/24 08:21:56;;;;;;;2.40;2.15;;;;;;;22.93;65.33;99494.03;5032475;28;20205;-83
2023/07/24 08:24:23;;;;;;;2.28;1.88;;;;;;;22.87;65.50;99483.16;5030170;28;20248;-83
2023/07/24 08:26:49;;;;;;;2.53;2.33;;;;;;;22.86;66.14;99485.03;5030569;28;20202;-82
2023/07/24 08:29:16;;;;;;;2.88;2.10;;;;;;;22.87;66.42;99488.59;5030678;28;20221;-82
2023/07/24 08:31:42;;;;;;;5.00;4.50;;;;;;;22.88;66.02;99493.00;5024252;28;20202;-84
2023/07/24 08:34:09;;;;;;;4.65;1.70;;;;;;;22.87;66.13;99502.19;5025453;28;20567;-84
2023/07/24 08:36:37;;;;;;;3.33;1.70;;;;;;;22.83;65.98;99499.84;5035086;28;20391;-84
2023/07/24 08:39:04;;;;;;;2.38;1.83;;;;;;;22.74;65.91;99509.22;5031971;28;20209;-84
2023/07/24 08:41:32;;;;;;;2.53;2.03;;;;;;;22.71;65.94;99493.31;5029538;28;20295;-83
2023/07/24 08:43:59;;;;;;;3.15;2.00;;;;;;;22.65;66.42;99496.84;5027855;28;20258;-83
2023/07/24 08:46:26;;;;;;;2.88;1.42;;;;;;;22.63;66.11;99498.91;5024872;28;20203;-83
2023/07/24 08:48:53;;;;;;;2.10;1.60;;;;;;;22.62;66.66;99501.81;5029020;28;20229;-82
2023/07/24 08:51:21;;;;;;;2.65;1.90;;;;;;;22.66;66.75;99509.38;5022907;28;20206;-81
2023/07/24 08:53:50;;;;;;;3.08;1.73;;;;;;;22.64;66.44;99497.88;5027560;28;20226;-83
2023/07/24 08:56:16;;;;;;;2.08;1.65;;;;;;;22.58;66.15;99514.97;5030471;28;20221;-83
2023/07/24 08:58:43;;;;;;;2.30;1.67;;;;;;;22.55;66.81;99504.53;5039160;28;20207;-84
2023/07/24 09:01:09;;;;;;;3.20;1.70;;;;;;;22.57;67.05;99518.75;5036949;28;20202;-83
2023/07/24 09:03:37;;;;;;;2.83;1.83;;;;;;;22.56;66.58;99514.34;5032692;28;20230;-82
2023/07/24 09:06:07;;;;;;;2.22;1.92;;;;;;;22.56;66.81;99519.78;5032459;28;20214;-82
2023/07/24 09:08:35;;;;;;;2.67;2.10;;;;;;;22.57;67.16;99510.59;5033833;28;20264;-81
2023/07/24 09:11:04;;;;;;;1.83;1.70;;;;;;;22.54;66.95;99508.28;5033742;28;20213;-83
2023/07/24 09:13:32;;;;;;;2.35;1.83;;;;;;;22.53;67.36;99495.75;5027068;28;20245;-84
2023/07/24 09:15:59;;;;;;;1.90;1.80;;;;;;;22.51;67.15;99512.25;5031546;28;20212;-83
2023/07/24 09:18:25;;;;;;;2.40;1.85;;;;;;;22.54;67.39;99513.72;5031195;28;20202;-82
2023/07/24 09:20:52;;;;;;;2.00;1.85;;;;;;;22.53;67.20;99522.88;5024472;28;20227;-83
2023/07/24 09:23:27;;;;;;;3.28;2.30;;;;;;;22.53;67.29;99517.47;5025773;28;20648;-84
2023/07/24 09:25:53;;;;;;;3.72;1.85;;;;;;;22.55;67.49;99493.69;5026162;28;20217;-85
2023/07/24 09:28:21;;;;;;;2.38;2.17;;;;;;;22.59;67.73;99508.50;5033037;28;20222;-84
2023/07/24 09:30:55;;;;;;;3.10;2.13;;;;;;;22.64;67.44;99508.72;5033661;28;20206;-85
2023/07/24 09:33:22;;;;;;;2.42;2.08;;;;;;;22.65;66.99;99512.28;5026286;28;20222;-84
2023/07/24 09:35:58;;;;;;;2.42;2.10;;;;;;;22.67;67.14;99511.03;5025194;28;20253;-84
2023/07/24 09:38:24;;;;;;;2.80;2.30;;;;;;;22.75;67.58;99502.72;5026655;28;20203;-84
2023/07/24 09:40:55;;;;;;;1.75;1.58;;;;;;;22.86;67.67;99504.06;5024456;28;20764;-82
2023/07/24 09:43:25;;;;;;;2.47;1.90;;;;;;;23.05;68.26;99510.56;5031253;28;20315;-84
2023/07/24 09:45:53;;;;;;;2.55;1.98;;;;;;;23.28;66.64;99504.78;5031961;28;20221;-82
2023/07/24 09:48:21;;;;;;;2.33;1.70;;;;;;;23.45;64.63;99496.03;5035778;28;20226;-82
2023/07/24 09:50:49;;;;;;;1.83;1.45;;;;;;;23.61;63.92;99491.25;5028160;28;20209;-82
2023/07/24 09:53:20;;;;;;;1.98;1.80;;;;;;;23.72;63.60;99498.75;5030955;28;20225;-85
2023/07/24 09:55:52;;;;;;;2.67;2.05;;;;;;;23.81;62.97;99492.06;5032303;28;20210;-83
2023/07/24 09:58:19;;;;;;;1.75;1.65;;;;;;;23.91;62.59;99502.50;5026261;28;20213;-84
2023/07/24 10:00:49;;;;;;;2.70;2.17;;;;;;;23.97;61.47;99486.19;5032340;28;20213;-82
2023/07/24 10:03:17;;;;;;;2.55;1.58;;;;;;;23.96;60.85;99484.53;5030289;28;20222;-82
2023/07/24 10:05:45;;;;;;;1.88;1.67;;;;;;;23.95;60.24;99491.00;5034578;28;20218;-84
2023/07/24 10:08:12;;;;;;;1.77;1.63;;;;;;;23.98;60.95;99484.31;5032131;28;20237;-84
2023/07/24 10:10:39;;;;;;;1.50;1.40;;;;;;;24.02;60.38;99499.97;5032227;28;20301;-85
2023/07/24 10:13:07;;;;;;;1.70;1.60;;;;;;;24.03;59.83;99485.31;5029565;28;20221;-84
2023/07/24 10:15:34;;;;;;;2.10;1.55;;;;;;;24.12;60.24;99485.94;5026438;28;20604;-83
2023/07/24 10:18:06;;;;;;;2.00;1.80;;;;;;;24.23;60.64;99482.56;5028671;28;20202;-83
2023/07/24 10:20:38;;;;;;;1.63;1.52;;;;;;;24.30;60.28;99475.25;5034967;28;20206;-82
2023/07/24 10:23:05;;;;;;;2.25;1.83;;;;;;;24.35;59.45;99469.19;5031152;28;20218;-83
2023/07/24 10:25:33;;;;;;;2.15;1.73;;;;;;;24.42;59.20;99465.38;5041643;28;20631;-84
2023/07/24 10:28:07;;;;;;;1.73;1.63;;;;;;;24.53;59.31;99461.16;5029256;28;20231;-82
2023/07/24 10:30:34;;;;;;;2.42;1.65;;;;;;;24.66;58.81;99444.75;5028940;28;20202;-82
2023/07/24 10:33:10;;;;;;;1.90;1.77;;;;;;;24.85;59.45;99435.63;5028426;28;20224;-82
2023/07/24 10:35:41;;;;;;;2.72;1.90;;;;;;;25.00;57.46;99438.09;5034658;28;20209;-82
2023/07/24 10:38:07;;;;;;;2.15;1.88;;;;;;;25.10;56.87;99432.13;5030636;28;20684;-82
2023/07/24 10:40:34;;;;;;;2.47;1.88;;;;;;;25.20;56.07;99427.06;5032206;28;20202;-82
2023/07/24 10:43:05;;;;;;;2.50;1.92;;;;;;;25.27;55.38;99427.81;5024711;28;20207;-82
2023/07/24 10:45:42;;;;;;;2.45;2.15;;;;;;;25.30;54.85;99421.91;5024452;28;20221;-83
2023/07/24 10:48:11;;;;;;;2.10;1.90;;;;;;;25.30;54.38;99419.19;5026614;28;20232;-82
2023/07/24 10:50:39;;;;;;;2.30;2.10;;;;;;;25.31;55.01;99415.41;5025743;28;20244;-81
2023/07/24 10:53:05;;;;;;;2.22;2.00;;;;;;;25.40;54.83;99418.72;5031060;28;20309;-83
2023/07/24 10:55:32;;;;;;;3.28;2.33;;;;;;;25.50;55.20;99411.69;5027070;28;20214;-82
2023/07/24 10:57:58;;;;;;;2.85;2.35;;;;;;;25.63;54.39;99410.75;5032542;28;20374;-80
2023/07/24 11:00:26;;;;;;;3.50;2.55;;;;;;;25.67;53.67;99414.72;5035241;28;20230;-81
2023/07/24 11:02:53;;;;;;;2.08;1.90;;;;;;;25.77;53.52;99414.22;5029817;28;20604;-83
2023/07/24 11:05:21;;;;;;;3.55;2.47;;;;;;;25.86;53.69;99429.19;5031560;28;20213;-85
2023/07/24 11:07:48;;;;;;;3.10;2.80;;;;;;;25.97;54.10;99431.19;5025768;28;20209;-85
2023/07/24 11:10:18;;;;;;;2.53;2.30;;;;;;;26.08;53.18;99424.97;5027375;28;20206;-83
2023/07/24 11:12:45;;;;;;;3.60;2.70;;;;;;;26.15;51.79;99408.53;5027559;28;20213;-82
2023/07/24 11:15:13;;;;;;;2.75;2.50;;;;;;;26.19;51.29;99424.22;5033841;28;20202;-83
2023/07/24 11:17:41;;;;;;;2.63;2.40;;;;;;;26.24;50.89;99424.38;5029096;28;20206;-82
2023/07/24 11:20:09;;;;;;;2.78;2.50;;;;;;;26.32;50.66;99408.78;5028231;28;20205;-84
2023/07/24 11:22:42;;;;;;;2.78;2.50;;;;;;;26.38;50.23;99422.34;5024956;28;20205;-82
2023/07/24 11:25:10;;;;;;;3.40;2.50;;;;;;;26.40;49.33;99416.66;5024340;28;20821;-84
2023/07/24 11:27:41;;;;;;;2.50;2.30;;;;;;;26.40;48.43;99411.19;5021304;28;20213;-82
2023/07/24 11:30:09;;;;;;;2.90;2.38;;;;;;;26.45;50.43;99392.22;5031134;28;21146;-82
2023/07/24 11:32:35;;;;;;;2.53;2.10;;;;;;;26.55;50.57;99401.53;5029254;28;20209;-83
2023/07/24 11:35:03;;;;;;;3.30;2.30;;;;;;;26.71;50.79;99402.78;5034514;28;20224;-81